Share

McGregor, ND (58755)

Rural Wildrose (KNDWILDR3) Elev 2238 ft | 48.63 °N, 103.16 °W | Change Station

Current weather conditions updated 10 minutes ago

Overcast
Overcast
27.5 °F
Feels Like 20 °F
N
7.3
Wind Variable Wind from SE
Sunrise 6:57 AM
Sunset 8:46 PM
Moon Waning Gibbous

Today is forecast to be Much Warmer than yesterday.

Pressure 30.27 in
Visibility 10.0 miles
Clouds Mostly Cloudy 3700 ft
Overcast 4400 ft
Windchill 20 °F
Dew Point 22 °F
Humidity 79%
Rainfall 0.00 in
Snow Depth Not available.
UV 0 out of 16
Pollen 6.40 out of 12
Air Quality Not available.
Flu Activity Sporadic
METAR KD60 170835Z AUTO 11010KT 10SM BKN037 OVC044 M05/M06 A3027 RMK AO2

More Conditions Fewer Conditions

Pressure 30.27 in
Visibility 10.0 miles
Clouds Mostly Cloudy 3700 ft
Overcast 4400 ft
Windchill 20 °F
Dew Point 22 °F
Humidity 79%
Rainfall 0.00 in
Snow Depth Not available.
UV 0 out of 16
Pollen 6.40 out of 12
Air Quality Not available.
Flu Activity Sporadic
METAR KD60 170835Z AUTO 11010KT 10SM BKN037 OVC044 M05/M06 A3027 RMK AO2

More Conditions Fewer Conditions

10-Day Forecast

Almanac

Astronomy

Apr. 17, 2014 Rise Set
Actual Time 6:57 AM CDT 8:46 PM CDT
Civil Twilight 6:24 AM CDT 9:19 PM CDT
Nautical Twilight 5:43 AM CDT 10:00 PM CDT
Astronomical Twilight 4:58 AM CDT 10:46 PM CDT
Moon 11:44 PM CDT 8:22 AM CDT
Length of Visible Light 14h 55m
Length of Day
13h 48m
Tomorrow will be 3m 24s longer.
Waning Gibbous, 95% of the Moon is Illuminated
Today
Waning Gibbous
Apr 22
Last Quarter
Apr 29
New
May 6
First Quarter
May 14
Full

Today's Extremes

State Highs State Lows

Community

  • Sunset over the Bay
    Sunset over the Bay
  • symphony in blue....
    symphony in blue....
  • Dawn Surprise
    Dawn Surprise
  • Yucca delight
    Yucca delight
  • Sunset inside of the Ocean
    Sunset inside of the Ocean

WunderPhotos

Upload Photos

1,701,875 photos uploaded!

WunderBlogs® & News

Nearby

Snow Depth

Station Depth Elevation
No new snow has been reported.

Coastal Water Temperatures

Place Temperature
No Stations Reporting

Earthquake Activity

City Distance Mag. Time & Date
No recent earthquake activity has been reported nearby.
Minimum magnitude displayed is 2.5.

Nearby Weather Stations

Station Location Temp. Windchill Dew Point Humidity Wind Precip. Elev Updated Type
Rural Wildrose, Wildrose, ND 27.5 °F 20 °F 22 °F 79% SE  at  7.3 mph - / hr 2238 ft 3:44 AM CDT Normal

Show More Stations Show Fewer Stations

What do you think?

We're not finished. Please let us know what you like, what you don't like, and what you are still missing.